Nearby METAR Reports

 

KMDQ - Huntsville/Madis, Alabama, USA
Distance from station: S 20mi, 32km
Updated: Wed, 27-May-2020 6:55pm CDT
Rain, Mist, Overcast
Rain, Mist, Overcast
 Wind from SW
Wind: SW 8 mph , 13 km/h
Temperature: 64°F , 18°C
Dew Point: 64°F , 18°C
Humidity: 100%
Barometer: 29.97 inHg , 1014.9 hPa
Summary: Rain, Mist
Clouds: Overcast
Visibility: 4 miles , 6 km
Cloud details: Partly cloudy 5000 ft
Mostly cloudy 6000 ft
Overcast 7500 ft
2020/05/27 23:55 KMDQ 272355Z AUTO 22007KT 4SM RA BR SCT050 BKN060 OVC075 18/18 A2997 RMK A02 T01840176 10248 20184 402480184
KTHA - Tullahoma, Tennessee, USA
Distance from station: NE 24mi, 39km
Updated: Wed, 27-May-2020 6:55pm CDT
Mist, Mostly cloudy
Mist, Mostly cloudy
 Wind from SE
Wind: SE 5 mph , 7 km/h
Temperature: 68°F , 20°C
Dew Point: 66°F , 19°C
Humidity: 94%
Barometer: 29.95 inHg , 1014.2 hPa
Summary: Mist
Clouds: Mostly cloudy
Visibility: 4 miles , 6 km
Cloud details: Mostly cloudy 3400 ft
Mostly cloudy 4000 ft
Mostly cloudy 4800 ft
2020/05/27 23:55 KTHA 272355Z AUTO 13004KT 4SM BR BKN034 BKN040 BKN048 20/19 A2995 RMK A01 P0013
 
KBGF - Winchester, Tennessee, USA
Distance from station: E 29mi, 46km
Updated: Wed, 27-May-2020 6:55pm CDT
Mist, Overcast
Mist, Overcast
 Wind from SE
Wind: SE 5 mph , 7 km/h
Temperature: 64°F , 18°C
Dew Point: 64°F , 18°C
Humidity: 100%
Barometer: 29.96 inHg , 1014.6 hPa
Summary: Mist
Clouds: Overcast
Visibility: 5 miles , 8 km
Cloud details: Partly cloudy 3900 ft
Mostly cloudy 6500 ft
Overcast 8000 ft
2020/05/27 23:55 KBGF 272355Z AUTO 14004KT 5SM BR SCT039 BKN065 OVC080 18/18 A2996 RMK A01 P0010
KHUA - Redstone Arsenal, Alabama, USA
Distance from station: S 33mi, 53km
Updated: Wed, 27-May-2020 6:58pm CDT
Rain, Mist, Overcast
Rain, Mist, Overcast
 Wind from ENE
Wind: ENE 7 mph , 11 km/h
Temperature: 64°F , 18°C
Dew Point: 63°F , 17°C
Humidity: 94%
Barometer: 29.96 inHg , 1014.6 hPa
Summary: Rain, Mist
Clouds: Overcast
Visibility: 4 miles , 6 km
Cloud details: Overcast 9500 ft
2020/05/27 23:58 KHUA 272358Z AUTO 07006KT 4SM RA BR OVC095 18/17 A2996 RMK AO2 SLP143 P0017 60091 T01790173 10252 20179 53013
 
KHSV - Huntsville, Alabama, USA
Distance from station: SSW 37mi, 59km
Updated: Wed, 27-May-2020 6:53pm CDT
Rain, Mist, Overcast
Rain, Mist, Overcast
 Wind from ENE
Wind: ENE 9 mph , 15 km/h
Temperature: 64°F , 18°C
Dew Point: 64°F , 18°C
Humidity: 100%
Barometer: 29.95 inHg , 1014.2 hPa
Summary: Rain, Mist
Clouds: Overcast
Visibility: 5 miles , 8 km
Cloud details: Mostly cloudy 9000 ft
Overcast 11000 ft
2020/05/27 23:53 KHSV 272353Z 06008KT 5SM RA BR BKN090 OVC110 18/18 A2995 RMK AO2 SLP136 P0010 60055 T01830178 10261 20183 50011
KDCU - Decatur, Alabama, USA
Distance from station: SSW 41mi, 66km
Updated: Wed, 27-May-2020 6:53pm CDT
Light rain, Overcast
Light rain, Overcast
 Wind from ENE
Wind: ENE 8 mph , 13 km/h
Temperature: 64°F , 18°C
Dew Point: 64°F , 18°C
Humidity: 100%
Barometer: 29.94 inHg , 1013.9 hPa
Summary: Light rain
Clouds: Overcast
Visibility: 9 miles , 14 km
Cloud details: Overcast 11000 ft
2020/05/27 23:53 KDCU 272353Z AUTO 07007KT 9SM -RA OVC110 18/18 A2994 RMK AO2 SLP133 P0009 60028 T01830178 10244 20183 50007
 
KMRC - Columbia, Tennessee, USA
Distance from station: NW 44mi, 71km
Updated: Wed, 27-May-2020 6:55pm CDT
Clear
Clear
 Wind from calm
Wind: Calm
Temperature: 73°F , 23°C
Dew Point: 72°F , 22°C
Humidity: 94%
Barometer: 29.92 inHg , 1013.2 hPa
Clouds: Clear
Visibility: 10 miles , 16 km
2020/05/27 23:55 KMRC 272355Z AUTO 00000KT 10SM CLR 23/22 A2992 RMK A01
K4A6 - Scottsboro, Alabama, USA
Distance from station: SE 46mi, 74km
Updated: Wed, 27-May-2020 6:55pm CDT
Nearby thunderstorm, Rain, Overcast
Nearby thunderstorm, Rain, Overcast
 Wind from W
Wind: W 14 mph , 22 km/h, Gust: 30 mph , 48 km/h
Temperature: 64°F , 18°C
Dew Point: 64°F , 18°C
Humidity: 100%
Barometer: 29.97 inHg , 1014.9 hPa
Summary: Nearby thunderstorm, Rain
Clouds: Overcast
Visibility: 3/4 mile , 1.2 km
Cloud details: Overcast 500 ft
2020/05/27 23:55 K4A6 272355Z AUTO 28012G26KT 250V320 3/4SM VCTS RA OVC005 18/18 A2997 RMK AO2 LTG DSNT NE-S
 
K9A4 - Courtland, Alabama, USA
Distance from station: SW 55mi, 89km
Updated: Thu, 22-Aug-2013 2:15pm CDT
NOT Current
Clear
Clear
 Wind from NNE
Wind: NNE 6 mph , 9 km/h
Temperature: 84°F , 29°C
Heat Index: 89°F , 32°C
Dew Point: 72°F , 22°C
Humidity: 66%
Barometer: 30.10 inHg , 1019.3 hPa
Clouds: Clear
Visibility: 10 miles , 16 km
2013/08/22 19:15 K9A4 221915Z AUTO 03005KT 10SM CLR 29/22 A3010 RMK AO2
KMQY - Smyrna, Tennessee, USA
Distance from station: N 60mi, 96km
Updated: Wed, 27-May-2020 7:03pm CDT
Light rain, Mostly cloudy
Light rain, Mostly cloudy
 Wind from SE
Wind: SE 7 mph , 11 km/h
Temperature: 70°F , 21°C
Dew Point: 70°F , 21°C
Humidity: 100%
Barometer: 29.95 inHg , 1014.2 hPa
Summary: Light rain
Clouds: Mostly cloudy
Visibility: 10 miles , 16 km
Cloud details: Mostly cloudy 700 ft
Mostly cloudy 10000 ft
2020/05/28 00:03 KMQY 280003Z 13006KT 10SM -RA BKN007 BKN100 21/21 A2995 RMK AO2 PNO $
 
K3A1 - Cullman/Folsom F, Alabama, USA
Distance from station: SSW 63mi, 102km
Updated: Mon, 01-Jul-2013 4:35pm CDT
NOT Current
Partly cloudy
Partly cloudy
 Wind from WNW
Wind: WNW 7 mph , 11 km/h
Temperature: 82°F , 28°C
Heat Index: 83°F , 28°C
Dew Point: 63°F , 17°C
Humidity: 51%
Barometer: 29.87 inHg , 1011.5 hPa
Clouds: Partly cloudy
Visibility: 10 miles , 16 km
Cloud details: Partly cloudy 4600 ft
Partly cloudy 6000 ft
Partly cloudy 7000 ft
2013/07/01 21:35 K3A1 012135Z AUTO 30006KT 10SM SCT046 SCT060 SCT070 28/17 A2987 RMK AO2 T02780172
KMSL - Muscle Shoal, Alabama, USA
Distance from station: WSW 65mi, 104km
Updated: Wed, 27-May-2020 7:02pm CDT
Mostly cloudy
Mostly cloudy
 Wind from SSE
Wind: SSE 7 mph , 11 km/h
Temperature: 72°F , 22°C
Dew Point: 68°F , 20°C
Humidity: 88%
Barometer: 29.92 inHg , 1013.2 hPa
Clouds: Mostly cloudy
Visibility: 10 miles , 16 km
Cloud details: Few Clouds 900 ft
Mostly cloudy 11000 ft
2020/05/28 00:02 KMSL 280002Z AUTO 15006KT 10SM FEW009 BKN110 22/20 A2992 RMK AO2 RAE01 P0000 T02220200
 
K8A0 - Albertville Muni, Alabama, USA
Distance from station: SSE 66mi, 106km
Updated: Wed, 27-May-2020 6:55pm CDT
Overcast
Overcast
 Wind from ESE
Wind: ESE 3 mph , 6 km/h
Temperature: 63°F , 17°C
Dew Point: 61°F , 16°C
Humidity: 94%
Barometer: 30.01 inHg , 1016.3 hPa
Clouds: Overcast
Visibility: 4 miles , 6 km
Cloud details: Partly cloudy 4800 ft
Overcast 9000 ft
2020/05/27 23:55 K8A0 272355Z AUTO 12003KT 4SM SCT048 OVC090 17/16 A3001 RMK AO2 P0010
KBNA - Nashville, Tennessee, USA
Distance from station: N 67mi, 108km
Updated: Wed, 27-May-2020 6:53pm CDT
Overcast
Overcast
 Wind from ESE
Wind: ESE 9 mph , 15 km/h
Temperature: 73°F , 23°C
Dew Point: 68°F , 20°C
Humidity: 83%
Barometer: 29.93 inHg , 1013.5 hPa
Clouds: Overcast
Visibility: 10 miles , 16 km
Cloud details: Few Clouds 1500 ft
Mostly cloudy 10000 ft
Overcast 20000 ft
2020/05/27 23:53 KBNA 272353Z 12008KT 10SM FEW015 BKN100 OVC200 23/20 A2993 RMK AO2 SLP131 60004 T02280200 10250 20211 55005
 
K4A9 - Ft Payne/Isbell, Alabama, USA
Distance from station: SE 68mi, 109km
Updated: Wed, 27-May-2020 6:55pm CDT
Light rain, Mist, Overcast
Light rain, Mist, Overcast
 Wind from WSW
Wind: WSW 8 mph , 13 km/h
Temperature: 64°F , 18°C
Dew Point: 63°F , 17°C
Humidity: 94%
Barometer: 29.98 inHg , 1015.2 hPa
Summary: Light rain, Mist
Clouds: Overcast
Visibility: 5 miles , 8 km
Cloud details: Partly cloudy 1200 ft
Mostly cloudy 4400 ft
Overcast 5500 ft
2020/05/27 23:55 K4A9 272355Z AUTO 24007KT 5SM -RA BR SCT012 BKN044 OVC055 18/17 A2998 RMK AO2 LTG DSNT SE THRU W P0040 T01780169 10229 20177 402290177 60066